createdAt,value
2022-12-06T00:02:10.610Z,2.03
2022-12-06T00:04:37.143Z,1.90
2022-12-06T00:07:03.665Z,2.40
2022-12-06T00:09:31.734Z,2.08
2022-12-06T00:11:58.407Z,1.70
2022-12-06T00:14:26.272Z,2.05
2022-12-06T00:16:52.820Z,2.10
2022-12-06T00:19:22.012Z,2.00
2022-12-06T00:21:48.443Z,1.85
2022-12-06T00:24:17.899Z,2.60
2022-12-06T00:26:46.095Z,1.92
2022-12-06T00:29:15.304Z,2.10
2022-12-06T00:31:41.866Z,2.20
2022-12-06T00:34:08.459Z,2.40
2022-12-06T00:36:37.626Z,2.75
2022-12-06T00:39:09.931Z,1.83
2022-12-06T00:41:36.468Z,1.85
2022-12-06T00:44:02.847Z,2.38
2022-12-06T00:46:31.065Z,2.10
2022-12-06T00:49:00.071Z,2.20
2022-12-06T00:51:29.092Z,2.08
2022-12-06T00:53:55.675Z,2.40
2022-12-06T00:56:22.094Z,2.30
2022-12-06T00:58:48.574Z,1.98
2022-12-06T01:01:15.743Z,2.20
2022-12-06T01:03:43.713Z,2.63
2022-12-06T01:06:13.232Z,2.17
2022-12-06T01:08:39.642Z,2.28
2022-12-06T01:11:07.332Z,2.28
2022-12-06T01:13:33.849Z,2.38
2022-12-06T01:16:15.170Z,2.42
2022-12-06T01:18:42.113Z,2.45
2022-12-06T01:21:12.060Z,2.30
2022-12-06T01:23:38.464Z,2.03
2022-12-06T01:26:06.358Z,2.30
2022-12-06T01:28:33.159Z,2.97
2022-12-06T01:30:59.845Z,2.70
2022-12-06T01:33:26.439Z,2.67
2022-12-06T01:35:52.836Z,2.45
2022-12-06T01:38:19.392Z,2.55
2022-12-06T01:40:47.852Z,2.83
2022-12-06T01:43:36.906Z,2.50
2022-12-06T01:46:22.059Z,2.60
2022-12-06T01:48:52.495Z,2.58
2022-12-06T01:51:19.175Z,2.72
2022-12-06T01:53:48.145Z,2.83
2022-12-06T01:56:14.766Z,2.85
2022-12-06T01:58:44.470Z,3.22
2022-12-06T02:01:11.370Z,2.72
2022-12-06T02:03:38.324Z,3.05
2022-12-06T02:06:07.237Z,2.80
2022-12-06T02:08:34.421Z,2.80
2022-12-06T02:11:03.039Z,3.78
2022-12-06T02:13:31.892Z,3.63
2022-12-06T02:16:24.338Z,3.33
2022-12-06T02:19:19.489Z,3.27
2022-12-06T02:21:52.366Z,3.22
2022-12-06T02:24:54.908Z,3.08
2022-12-06T02:27:42.776Z,3.00
2022-12-06T02:30:31.829Z,3.13
2022-12-06T02:33:08.332Z,3.63
2022-12-06T02:35:37.366Z,3.58
2022-12-06T02:38:23.693Z,3.33
2022-12-06T02:41:00.966Z,3.78
2022-12-06T02:43:35.495Z,3.47
2022-12-06T02:46:04.343Z,3.38
2022-12-06T02:48:32.362Z,2.67
2022-12-06T02:51:07.063Z,2.80
2022-12-06T02:53:38.835Z,3.70
2022-12-06T02:56:05.640Z,3.13
2022-12-06T02:58:37.315Z,2.88
2022-12-06T03:01:15.132Z,3.50
2022-12-06T03:04:12.656Z,3.40
2022-12-06T03:07:18.290Z,3.20
2022-12-06T03:09:58.686Z,3.72
2022-12-06T03:12:39.647Z,3.33
2022-12-06T03:15:33.952Z,3.42
2022-12-06T03:18:09.327Z,2.90
2022-12-06T03:20:52.246Z,3.45
2022-12-06T03:23:32.698Z,3.55
2022-12-06T03:26:01.596Z,3.55
2022-12-06T03:28:29.824Z,3.92
2022-12-06T03:31:02.165Z,3.42
2022-12-06T03:33:31.072Z,2.65
2022-12-06T03:35:58.483Z,3.75
2022-12-06T03:38:40.662Z,3.30
2022-12-06T03:41:08.694Z,3.22
2022-12-06T03:43:35.239Z,3.88
2022-12-06T03:46:11.353Z,3.42
2022-12-06T03:48:43.322Z,4.13
2022-12-06T03:51:27.138Z,3.65
2022-12-06T03:53:57.203Z,4.10
2022-12-06T03:56:24.358Z,4.00
2022-12-06T03:58:51.062Z,3.95
2022-12-06T04:01:17.901Z,3.42
2022-12-06T04:03:44.443Z,3.95
2022-12-06T04:06:11.743Z,4.18
2022-12-06T04:08:38.320Z,4.25
2022-12-06T04:11:04.776Z,3.55
2022-12-06T04:13:31.688Z,4.40
2022-12-06T04:16:00.689Z,5.10
2022-12-06T04:18:27.928Z,4.32
2022-12-06T04:21:21.477Z,4.65
2022-12-06T04:23:50.464Z,5.32
2022-12-06T04:26:21.606Z,4.75
2022-12-06T04:29:08.035Z,3.65
2022-12-06T04:31:53.534Z,3.78
2022-12-06T04:34:39.165Z,4.47
2022-12-06T04:37:24.580Z,4.18
2022-12-06T04:39:51.136Z,4.32
2022-12-06T04:42:36.251Z,4.70
2022-12-06T04:45:04.043Z,3.95
2022-12-06T04:47:31.028Z,4.82
2022-12-06T04:49:57.554Z,4.88
2022-12-06T04:52:24.043Z,4.85
2022-12-06T04:54:50.501Z,4.55
2022-12-06T04:57:17.330Z,5.03
2022-12-06T04:59:45.353Z,4.50
2022-12-06T05:02:14.231Z,4.97
2022-12-06T05:04:40.992Z,5.65
2022-12-06T05:07:07.597Z,5.60
2022-12-06T05:09:34.071Z,4.57
2022-12-06T05:12:00.484Z,5.03
2022-12-06T05:14:26.909Z,4.32
2022-12-06T05:16:53.408Z,4.90
2022-12-06T05:19:19.915Z,4.47
2022-12-06T05:21:47.041Z,4.78
2022-12-06T05:24:14.179Z,4.82
2022-12-06T05:26:41.238Z,4.68
2022-12-06T05:29:07.821Z,5.07
2022-12-06T05:31:34.231Z,5.32
2022-12-06T05:34:00.711Z,5.93
2022-12-06T05:36:28.001Z,4.72
2022-12-06T05:38:55.748Z,4.45
2022-12-06T05:41:23.245Z,4.28
2022-12-06T05:43:49.784Z,4.47
2022-12-06T05:46:16.282Z,4.13
2022-12-06T05:48:42.712Z,3.72
2022-12-06T05:51:09.165Z,3.88
2022-12-06T05:53:35.766Z,5.38
2022-12-06T05:56:08.497Z,4.63
2022-12-06T05:58:35.449Z,4.35
2022-12-06T06:01:02.212Z,4.80
2022-12-06T06:03:28.662Z,4.50
2022-12-06T06:05:58.376Z,4.00
2022-12-06T06:08:25.196Z,4.25
2022-12-06T06:10:51.743Z,4.88
2022-12-06T06:13:18.229Z,5.18
2022-12-06T06:15:44.603Z,6.03
2022-12-06T06:18:11.226Z,5.03
2022-12-06T06:20:37.651Z,4.57
2022-12-06T06:23:04.031Z,4.95
2022-12-06T06:25:30.403Z,5.43
2022-12-06T06:27:57.868Z,4.38
2022-12-06T06:30:24.237Z,4.45
2022-12-06T06:32:50.665Z,4.32
2022-12-06T06:35:17.245Z,4.45
2022-12-06T06:37:43.636Z,4.93
2022-12-06T06:40:11.246Z,4.68
2022-12-06T06:42:38.119Z,4.30
2022-12-06T06:45:05.175Z,4.70
2022-12-06T06:47:31.589Z,5.20
2022-12-06T06:49:58.307Z,4.85
2022-12-06T06:52:25.125Z,4.05
2022-12-06T06:54:58.232Z,4.82
2022-12-06T06:57:26.566Z,4.30
2022-12-06T06:59:52.923Z,3.78
2022-12-06T07:02:19.463Z,5.03
2022-12-06T07:04:45.864Z,4.18
2022-12-06T07:07:17.882Z,4.55
2022-12-06T07:09:47.614Z,3.83
2022-12-06T07:12:14.408Z,3.33
2022-12-06T07:14:40.824Z,3.65
2022-12-06T07:17:07.235Z,4.72
2022-12-06T07:19:33.691Z,4.55
2022-12-06T07:22:00.041Z,3.95
2022-12-06T07:24:26.571Z,3.28
2022-12-06T07:26:52.992Z,3.55
2022-12-06T07:29:19.338Z,3.63
2022-12-06T07:31:45.712Z,3.38
2022-12-06T07:34:12.127Z,3.38
2022-12-06T07:36:38.535Z,3.10
2022-12-06T07:39:08.902Z,3.85
2022-12-06T07:44:58.355Z,5.32
2022-12-06T07:47:39.845Z,4.43
2022-12-06T07:50:12.921Z,3.60
2022-12-06T07:52:42.971Z,3.47
2022-12-06T07:55:11.047Z,3.25
2022-12-06T07:57:43.142Z,3.15
2022-12-06T08:00:13.292Z,3.60
2022-12-06T08:02:39.723Z,3.50
2022-12-06T08:05:06.620Z,3.60
2022-12-06T08:07:33.097Z,3.70
2022-12-06T08:09:59.935Z,4.75
2022-12-06T08:12:33.434Z,3.72
2022-12-06T08:15:00.379Z,3.42
2022-12-06T08:17:27.601Z,3.40
2022-12-06T08:19:54.083Z,2.97
2022-12-06T08:22:20.463Z,2.58
2022-12-06T08:24:46.912Z,2.88
2022-12-06T08:27:13.399Z,3.42
2022-12-06T08:29:39.856Z,3.22
2022-12-06T08:32:06.195Z,2.63
2022-12-06T08:34:33.736Z,3.40
2022-12-06T08:37:03.350Z,3.60
2022-12-06T08:39:30.166Z,3.13
2022-12-06T08:41:58.033Z,3.08
2022-12-06T08:44:28.943Z,3.95
2022-12-06T08:46:56.228Z,4.63
2022-12-06T08:49:24.126Z,5.60
2022-12-06T08:51:51.742Z,4.32
2022-12-06T08:54:21.368Z,5.85
2022-12-06T08:56:48.314Z,6.25
2022-12-06T08:59:15.442Z,5.47
2022-12-06T09:01:42.413Z,4.78
2022-12-06T09:04:10.703Z,4.97
2022-12-06T09:06:39.756Z,5.38
2022-12-06T09:09:06.835Z,4.78
2022-12-06T09:11:33.156Z,6.07
2022-12-06T09:13:59.590Z,6.22
2022-12-06T09:16:26.155Z,4.20
2022-12-06T09:18:52.584Z,4.55
2022-12-06T09:21:22.771Z,3.65
2022-12-06T09:23:50.290Z,3.97
2022-12-06T09:26:16.768Z,4.32
2022-12-06T09:28:46.186Z,4.38
2022-12-06T09:31:12.598Z,3.70
2022-12-06T09:33:39.036Z,4.13
2022-12-06T09:39:10.355Z,3.72
2022-12-06T09:41:37.912Z,4.55
2022-12-06T09:44:13.105Z,4.38
2022-12-06T09:46:50.240Z,4.07
2022-12-06T09:49:31.173Z,4.35
2022-12-06T09:52:11.143Z,11.60
2022-12-06T09:55:06.285Z,4.43
2022-12-06T09:57:44.807Z,3.28
2022-12-06T10:00:19.013Z,3.70
2022-12-06T10:03:06.237Z,3.45
2022-12-06T10:06:01.390Z,3.80
2022-12-06T10:08:44.568Z,2.95
2022-12-06T10:13:58.691Z,3.75
2022-12-06T10:17:00.373Z,3.55
2022-12-06T10:19:42.338Z,3.00
2022-12-06T10:22:11.895Z,3.22
2022-12-06T10:24:46.512Z,3.75
2022-12-06T10:27:19.675Z,4.45
2022-12-06T10:29:58.499Z,4.97
2022-12-06T10:32:46.581Z,4.45
2022-12-06T10:35:33.541Z,5.55
2022-12-06T10:38:35.175Z,4.70
2022-12-06T10:41:21.141Z,8.15
2022-12-06T10:43:55.280Z,4.53
2022-12-06T10:47:03.318Z,3.13
2022-12-06T10:49:39.392Z,4.90
2022-12-06T10:52:30.900Z,5.78
2022-12-06T10:55:02.321Z,7.22
2022-12-06T10:57:36.432Z,4.90
2022-12-06T11:00:24.691Z,5.55
2022-12-06T11:03:03.198Z,4.40
2022-12-06T11:05:48.526Z,3.35
2022-12-06T11:08:21.832Z,4.45
2022-12-06T11:10:48.473Z,5.22
2022-12-06T11:13:39.603Z,5.68
2022-12-06T11:16:24.205Z,5.47
2022-12-06T11:18:51.532Z,4.15
2022-12-06T11:21:45.000Z,4.43
2022-12-06T11:27:00.005Z,3.58
2022-12-06T11:29:26.517Z,3.95
2022-12-06T11:31:59.672Z,3.97
2022-12-06T11:34:46.468Z,3.05
2022-12-06T11:37:18.255Z,3.10
2022-12-06T11:39:45.243Z,3.13
2022-12-06T11:42:14.635Z,3.40
2022-12-06T11:44:51.950Z,3.67
2022-12-06T11:47:24.252Z,3.95
2022-12-06T11:49:54.191Z,3.33
2022-12-06T11:52:48.150Z,3.45
2022-12-06T11:55:21.725Z,3.40
2022-12-06T11:58:09.220Z,3.40
2022-12-06T12:00:35.788Z,4.13
2022-12-06T12:03:02.419Z,3.30
2022-12-06T12:05:34.217Z,3.78
2022-12-06T12:08:17.015Z,3.50
2022-12-06T12:10:57.498Z,3.78
2022-12-06T12:13:42.761Z,3.90
2022-12-06T12:16:23.614Z,3.45
2022-12-06T12:18:54.905Z,3.50
2022-12-06T12:21:37.696Z,3.47
2022-12-06T12:24:05.136Z,2.92
2022-12-06T12:26:40.595Z,3.75
2022-12-06T12:29:19.516Z,3.60
2022-12-06T12:31:47.849Z,3.15
2022-12-06T12:34:28.743Z,3.70
2022-12-06T12:37:00.777Z,3.28
2022-12-06T12:39:45.048Z,3.07
2022-12-06T12:42:33.185Z,4.90
2022-12-06T12:45:02.829Z,3.15
2022-12-06T12:47:29.377Z,3.13
2022-12-06T12:50:25.851Z,3.35
2022-12-06T12:52:52.696Z,3.78
2022-12-06T12:55:25.925Z,3.53
2022-12-06T13:00:35.908Z,4.20
2022-12-06T13:03:54.122Z,4.53
2022-12-06T13:06:27.466Z,2.78
2022-12-06T13:11:22.597Z,3.92
2022-12-06T13:13:53.833Z,3.55
2022-12-06T13:16:32.434Z,4.15
2022-12-06T13:18:59.229Z,4.40
2022-12-06T13:21:36.225Z,3.92
2022-12-06T13:24:13.341Z,4.15
2022-12-06T13:26:45.671Z,4.30
2022-12-06T13:29:27.517Z,4.13
2022-12-06T13:31:56.282Z,3.55
2022-12-06T13:34:44.137Z,3.60
2022-12-06T13:37:34.267Z,3.33
2022-12-06T13:40:01.744Z,3.00
2022-12-06T13:42:34.328Z,3.22
2022-12-06T13:45:00.867Z,3.20
2022-12-06T13:47:27.169Z,3.28
2022-12-06T13:49:55.207Z,3.78
2022-12-06T13:53:00.290Z,3.35
2022-12-06T13:55:28.163Z,3.97
2022-12-06T13:58:00.480Z,5.03
2022-12-06T14:00:30.005Z,5.45
2022-12-06T14:02:58.797Z,7.00
2022-12-06T14:08:38.205Z,4.68
2022-12-06T14:11:18.189Z,4.05
2022-12-06T14:14:08.924Z,3.28
2022-12-06T14:16:56.804Z,3.90
2022-12-06T14:19:23.190Z,3.55
2022-12-06T14:22:02.479Z,10.82
2022-12-06T14:24:37.668Z,10.07
2022-12-06T14:27:18.288Z,6.78
2022-12-06T14:30:06.089Z,5.30
2022-12-06T14:32:37.540Z,4.53
2022-12-06T14:35:12.883Z,3.28
2022-12-06T14:37:45.346Z,3.83
2022-12-06T14:40:45.099Z,4.10
2022-12-06T14:43:17.070Z,3.40
2022-12-06T14:45:45.339Z,4.28
2022-12-06T14:48:12.988Z,3.92
2022-12-06T14:50:42.365Z,4.00
2022-12-06T14:53:14.490Z,4.30
2022-12-06T14:55:58.851Z,3.47
2022-12-06T14:58:34.985Z,3.72
2022-12-06T15:01:05.605Z,5.00
2022-12-06T15:03:33.156Z,4.13
2022-12-06T15:06:16.564Z,4.13
2022-12-06T15:11:10.642Z,3.45
2022-12-06T15:13:38.042Z,3.78
2022-12-06T15:16:07.569Z,4.43
2022-12-06T15:18:37.904Z,5.25
2022-12-06T15:21:12.808Z,5.30
2022-12-06T15:23:49.333Z,5.88
2022-12-06T15:26:16.251Z,5.25
2022-12-06T15:28:43.024Z,4.97
2022-12-06T15:31:20.705Z,5.43
2022-12-06T15:33:47.836Z,4.78
2022-12-06T15:36:16.980Z,5.60
2022-12-06T15:38:44.052Z,5.43
2022-12-06T15:41:17.061Z,5.18
2022-12-06T15:46:23.774Z,6.10
2022-12-06T15:48:51.355Z,5.28
2022-12-06T15:51:21.056Z,5.03
2022-12-06T15:53:49.460Z,6.40
2022-12-06T15:56:22.353Z,7.10
2022-12-06T15:58:50.501Z,5.97
2022-12-06T16:01:19.844Z,5.60
2022-12-06T16:03:47.183Z,6.13
2022-12-06T16:06:18.011Z,6.20
2022-12-06T16:08:45.429Z,5.38
2022-12-06T16:11:13.099Z,5.85
2022-12-06T16:13:39.972Z,6.00
2022-12-06T16:16:07.047Z,6.78
2022-12-06T16:18:33.614Z,5.25
2022-12-06T16:21:00.490Z,5.60
2022-12-06T16:26:38.048Z,4.93
2022-12-06T16:29:07.047Z,5.68
2022-12-06T16:31:38.611Z,6.72
2022-12-06T16:34:05.474Z,5.82
2022-12-06T16:36:32.559Z,5.63
2022-12-06T16:39:02.036Z,5.30
2022-12-06T16:41:32.906Z,5.07
2022-12-06T16:43:59.936Z,6.13
2022-12-06T16:46:37.485Z,5.28
2022-12-06T16:52:11.186Z,5.65
2022-12-06T16:54:40.830Z,6.18
2022-12-06T16:57:07.559Z,5.07
2022-12-06T16:59:35.107Z,5.43
2022-12-06T17:02:01.641Z,6.57
2022-12-06T17:04:30.576Z,7.03
2022-12-06T17:06:57.085Z,6.60
2022-12-06T17:09:23.428Z,5.68
2022-12-06T17:12:06.746Z,7.80
2022-12-06T17:14:35.983Z,5.85
2022-12-06T17:17:03.834Z,6.18
2022-12-06T17:19:33.010Z,6.10
2022-12-06T17:22:02.297Z,6.05
2022-12-06T17:24:29.076Z,5.57
2022-12-06T17:26:55.816Z,5.97
2022-12-06T17:29:26.177Z,5.90
2022-12-06T17:31:53.204Z,6.20
2022-12-06T17:34:20.545Z,6.53
2022-12-06T17:36:47.690Z,5.65
2022-12-06T17:39:16.656Z,5.93
2022-12-06T17:42:01.641Z,5.57
2022-12-06T17:44:28.197Z,5.65
2022-12-06T17:46:54.565Z,5.35
2022-12-06T17:49:23.347Z,5.70
2022-12-06T17:51:50.568Z,6.00
2022-12-06T17:54:17.449Z,5.45
2022-12-06T17:56:48.764Z,5.20
2022-12-06T17:59:18.021Z,5.60
2022-12-06T18:02:13.705Z,5.40
2022-12-06T18:04:32.089Z,6.95
2022-12-06T18:06:58.455Z,5.93
2022-12-06T18:09:25.041Z,6.63
2022-12-06T18:11:51.498Z,6.25
2022-12-06T18:14:17.988Z,7.22
2022-12-06T18:16:45.889Z,7.30
2022-12-06T18:19:15.946Z,7.05
2022-12-06T18:21:42.416Z,6.75
2022-12-06T18:24:21.521Z,7.03
2022-12-06T18:26:49.171Z,6.70
2022-12-06T18:29:21.254Z,6.13
2022-12-06T18:31:48.557Z,6.13
2022-12-06T18:34:15.732Z,7.40
2022-12-06T18:36:42.521Z,7.15
2022-12-06T18:39:14.891Z,7.35
2022-12-06T18:44:10.306Z,8.60
2022-12-06T18:46:38.576Z,7.65
2022-12-06T18:49:05.198Z,6.22
2022-12-06T18:51:33.681Z,7.90
2022-12-06T18:54:02.230Z,7.75
2022-12-06T18:56:30.201Z,7.28
2022-12-06T18:59:01.211Z,7.82
2022-12-06T19:01:33.492Z,8.50
2022-12-06T19:04:02.817Z,8.65
2022-12-06T19:06:32.170Z,7.63
2022-12-06T19:09:02.157Z,7.55
2022-12-06T19:11:28.887Z,7.57
2022-12-06T19:14:00.012Z,7.55
2022-12-06T19:16:47.235Z,8.65
2022-12-06T19:19:22.641Z,8.07
2022-12-06T19:21:50.470Z,7.90
2022-12-06T19:24:21.221Z,8.40
2022-12-06T19:26:49.871Z,9.10
2022-12-06T19:29:16.595Z,10.52
2022-12-06T19:31:43.436Z,10.25
2022-12-06T19:34:35.548Z,9.60
2022-12-06T19:37:02.172Z,9.32
2022-12-06T19:39:28.579Z,8.20
2022-12-06T19:42:13.600Z,9.52
2022-12-06T19:44:40.050Z,8.23
2022-12-06T19:47:06.399Z,8.50
2022-12-06T19:49:32.951Z,9.13
2022-12-06T19:51:59.310Z,9.13
2022-12-06T19:54:28.246Z,8.30
2022-12-06T19:56:57.018Z,18.75
2022-12-06T19:59:28.150Z,34.33
2022-12-06T20:01:57.847Z,30.58
2022-12-06T20:04:27.116Z,20.38
2022-12-06T20:06:54.559Z,12.95
2022-12-06T20:09:23.473Z,12.82
2022-12-06T20:12:02.087Z,10.27
2022-12-06T20:14:34.848Z,10.75
2022-12-06T20:17:02.714Z,9.88
2022-12-06T20:19:29.345Z,9.30
2022-12-06T20:21:55.835Z,9.90
2022-12-06T20:24:22.878Z,9.30
2022-12-06T20:26:51.956Z,8.90
2022-12-06T20:29:18.983Z,8.20
2022-12-06T20:31:45.717Z,8.05
2022-12-06T20:34:15.370Z,8.88
2022-12-06T20:36:42.943Z,7.78
2022-12-06T20:39:38.213Z,8.48
2022-12-06T20:42:06.271Z,8.23
2022-12-06T20:44:33.948Z,8.23
2022-12-06T20:47:00.511Z,9.50
2022-12-06T20:49:27.078Z,8.30
2022-12-06T20:51:53.968Z,8.43
2022-12-06T20:54:21.635Z,8.25
2022-12-06T20:56:51.223Z,8.55
2022-12-06T20:59:17.632Z,8.02
2022-12-06T21:01:44.025Z,8.23
2022-12-06T21:04:13.203Z,7.70
2022-12-06T21:06:40.586Z,7.57
2022-12-06T21:09:07.072Z,7.50
2022-12-06T21:11:33.771Z,8.20
2022-12-06T21:14:01.262Z,10.05
2022-12-06T21:16:30.041Z,8.88
2022-12-06T21:19:00.531Z,8.43
2022-12-06T21:21:29.964Z,8.23
2022-12-06T21:24:00.317Z,8.55
2022-12-06T21:26:28.283Z,8.13
2022-12-06T21:28:55.144Z,8.85
2022-12-06T21:31:29.441Z,9.30
2022-12-06T21:33:56.669Z,7.97
2022-12-06T21:36:23.645Z,8.05
2022-12-06T21:38:52.126Z,7.75
2022-12-06T21:41:20.498Z,8.85
2022-12-06T21:43:47.210Z,7.90
2022-12-06T21:46:17.479Z,9.80
2022-12-06T21:48:45.216Z,8.05
2022-12-06T21:51:13.840Z,8.70
2022-12-06T21:53:40.297Z,8.27
2022-12-06T21:56:21.074Z,9.68
2022-12-06T21:58:48.653Z,9.05
2022-12-06T22:01:18.173Z,9.85
2022-12-06T22:03:48.486Z,9.57
2022-12-06T22:06:15.020Z,8.15
2022-12-06T22:08:43.362Z,8.55
2022-12-06T22:11:12.377Z,9.45
2022-12-06T22:13:38.992Z,9.20
2022-12-06T22:16:07.776Z,8.25
2022-12-06T22:18:38.758Z,8.25
2022-12-06T22:21:16.138Z,9.52
2022-12-06T22:23:42.836Z,9.60
2022-12-06T22:26:12.214Z,10.55
2022-12-06T22:28:38.560Z,9.70
2022-12-06T22:31:16.533Z,9.88
2022-12-06T22:33:43.878Z,10.60
2022-12-06T22:36:11.997Z,10.10
2022-12-06T22:38:38.885Z,9.80
2022-12-06T22:41:06.683Z,11.02
2022-12-06T22:43:33.762Z,10.77
2022-12-06T22:46:09.422Z,11.75
2022-12-06T22:48:36.350Z,10.75
2022-12-06T22:51:14.557Z,9.93
2022-12-06T22:53:42.813Z,9.50
2022-12-06T22:56:10.244Z,10.00
2022-12-06T22:58:37.028Z,9.50
2022-12-06T23:01:16.026Z,9.65
2022-12-06T23:03:44.637Z,8.73
2022-12-06T23:06:11.049Z,9.27
2022-12-06T23:08:37.606Z,9.30
2022-12-06T23:11:10.271Z,9.48
2022-12-06T23:13:36.948Z,9.02
2022-12-06T23:16:06.831Z,8.32
2022-12-06T23:18:33.909Z,11.02
2022-12-06T23:21:13.782Z,9.30
2022-12-06T23:23:42.468Z,9.13
2022-12-06T23:26:23.748Z,9.82
2022-12-06T23:28:50.485Z,10.27
2022-12-06T23:31:22.369Z,10.88
2022-12-06T23:33:53.139Z,10.73
2022-12-06T23:36:22.481Z,10.27
2022-12-06T23:38:49.223Z,9.70
2022-12-06T23:41:18.755Z,10.35
2022-12-06T23:43:45.552Z,8.85
2022-12-06T23:46:17.828Z,9.68
2022-12-06T23:48:48.428Z,8.70
2022-12-06T23:51:16.908Z,9.25
2022-12-06T23:53:44.441Z,10.27
2022-12-06T23:56:17.791Z,10.20
2022-12-06T23:58:45.176Z,9.70
